sensor_id;sensor_type;location;lat;lon;timestamp;pressure;altitude;pressure_sealevel;temperature;humidity
15634;BME280;14654;48.898;8.308;2023-03-13T00:00:27;99760.31;;;10.12;98.96
15634;BME280;14654;48.898;8.308;2023-03-13T00:02:52;99762.00;;;10.15;98.55
15634;BME280;14654;48.898;8.308;2023-03-13T00:05:17;99755.06;;;10.17;98.32
15634;BME280;14654;48.898;8.308;2023-03-13T00:07:43;99759.34;;;10.18;98.26
15634;BME280;14654;48.898;8.308;2023-03-13T00:10:08;99742.94;;;10.20;98.37
15634;BME280;14654;48.898;8.308;2023-03-13T00:12:34;99750.66;;;10.22;97.98
15634;BME280;14654;48.898;8.308;2023-03-13T00:14:59;99747.19;;;10.23;97.88
15634;BME280;14654;48.898;8.308;2023-03-13T00:17:24;99735.97;;;10.24;97.70
15634;BME280;14654;48.898;8.308;2023-03-13T00:19:49;99739.44;;;10.25;98.13
15634;BME280;14654;48.898;8.308;2023-03-13T00:22:15;99735.09;;;10.27;97.88
15634;BME280;14654;48.898;8.308;2023-03-13T00:24:40;99729.88;;;10.28;97.59
15634;BME280;14654;48.898;8.308;2023-03-13T00:27:06;99724.66;;;10.30;97.39
15634;BME280;14654;48.898;8.308;2023-03-13T00:29:33;99721.19;;;10.32;96.74
15634;BME280;14654;48.898;8.308;2023-03-13T00:31:59;99715.97;;;10.34;96.80
15634;BME280;14654;48.898;8.308;2023-03-13T00:34:25;99714.22;;;10.36;96.38
15634;BME280;14654;48.898;8.308;2023-03-13T00:36:52;99705.63;;;10.35;96.13
15634;BME280;14654;48.898;8.308;2023-03-13T00:39:18;99701.25;;;10.37;96.00
15634;BME280;14654;48.898;8.308;2023-03-13T00:41:43;99696.94;;;10.40;95.65
15634;BME280;14654;48.898;8.308;2023-03-13T00:44:09;99694.34;;;10.41;95.83
15634;BME280;14654;48.898;8.308;2023-03-13T00:46:35;99683.13;;;10.42;95.96
15634;BME280;14654;48.898;8.308;2023-03-13T00:49:00;99674.44;;;10.45;95.63
15634;BME280;14654;48.898;8.308;2023-03-13T00:51:26;99674.41;;;10.48;95.27
15634;BME280;14654;48.898;8.308;2023-03-13T00:53:53;99672.66;;;10.48;95.21
15634;BME280;14654;48.898;8.308;2023-03-13T00:56:19;99667.47;;;10.50;94.59
15634;BME280;14654;48.898;8.308;2023-03-13T00:58:45;99664.00;;;10.51;94.50
15634;BME280;14654;48.898;8.308;2023-03-13T01:03:39;99658.00;;;10.47;94.53
15634;BME280;14654;48.898;8.308;2023-03-13T01:06:07;99655.50;;;10.43;94.71
15634;BME280;14654;48.898;8.308;2023-03-13T01:08:33;99652.88;;;10.44;94.60
15634;BME280;14654;48.898;8.308;2023-03-13T01:13:29;99643.34;;;10.46;94.28
15634;BME280;14654;48.898;8.308;2023-03-13T01:15:54;99647.66;;;10.49;93.79
15634;BME280;14654;48.898;8.308;2023-03-13T01:18:20;99642.44;;;10.50;94.06
15634;BME280;14654;48.898;8.308;2023-03-13T01:20:45;99638.91;;;10.53;93.97
15634;BME280;14654;48.898;8.308;2023-03-13T01:23:10;99637.97;;;10.59;93.67
15634;BME280;14654;48.898;8.308;2023-03-13T01:25:36;99635.28;;;10.63;93.51
15634;BME280;14654;48.898;8.308;2023-03-13T01:28:03;99642.97;;;10.66;93.42
15634;BME280;14654;48.898;8.308;2023-03-13T01:30:28;99624.84;;;10.68;93.51
15634;BME280;14654;48.898;8.308;2023-03-13T01:32:54;99629.09;;;10.71;93.45
15634;BME280;14654;48.898;8.308;2023-03-13T01:35:19;99623.88;;;10.74;93.55
15634;BME280;14654;48.898;8.308;2023-03-13T01:37:44;99617.75;;;10.76;93.38
15634;BME280;14654;48.898;8.308;2023-03-13T01:40:10;99607.25;;;10.84;93.17
15634;BME280;14654;48.898;8.308;2023-03-13T01:42:53;99608.06;;;10.88;93.69
15634;BME280;14654;48.898;8.308;2023-03-13T01:48:15;99599.38;;;10.90;95.32
15634;BME280;14654;48.898;8.308;2023-03-13T01:50:41;99595.84;;;10.93;96.68
15634;BME280;14654;48.898;8.308;2023-03-13T01:53:06;99604.50;;;10.93;97.47
15634;BME280;14654;48.898;8.308;2023-03-13T01:55:32;99595.84;;;10.94;98.41
15634;BME280;14654;48.898;8.308;2023-03-13T01:57:58;99586.38;;;10.92;99.08
15634;BME280;14654;48.898;8.308;2023-03-13T02:00:31;99588.16;;;10.90;100.00
15634;BME280;14654;48.898;8.308;2023-03-13T02:03:03;99587.34;;;10.88;100.00
15634;BME280;14654;48.898;8.308;2023-03-13T02:05:30;99589.06;;;10.87;100.00
15634;BME280;14654;48.898;8.308;2023-03-13T02:08:16;99584.78;;;10.86;100.00
15634;BME280;14654;48.898;8.308;2023-03-13T02:10:52;99582.25;;;10.83;100.00
15634;BME280;14654;48.898;8.308;2023-03-13T02:13:19;99577.16;;;10.80;100.00
15634;BME280;14654;48.898;8.308;2023-03-13T02:15:45;99571.16;;;10.78;100.00
15634;BME280;14654;48.898;8.308;2023-03-13T02:18:11;99573.75;;;10.76;100.00
15634;BME280;14654;48.898;8.308;2023-03-13T02:20:38;99571.25;;;10.73;100.00
15634;BME280;14654;48.898;8.308;2023-03-13T02:25:46;99552.31;;;10.71;100.00
15634;BME280;14654;48.898;8.308;2023-03-13T02:28:16;99545.47;;;10.68;100.00
15634;BME280;14654;48.898;8.308;2023-03-13T02:30:43;99548.94;;;10.67;100.00
15634;BME280;14654;48.898;8.308;2023-03-13T02:33:11;99548.94;;;10.67;100.00
15634;BME280;14654;48.898;8.308;2023-03-13T02:35:37;99534.28;;;10.68;100.00
15634;BME280;14654;48.898;8.308;2023-03-13T02:38:06;99531.63;;;10.70;100.00
15634;BME280;14654;48.898;8.308;2023-03-13T02:40:42;99514.34;;;10.73;100.00
15634;BME280;14654;48.898;8.308;2023-03-13T02:43:12;99503.13;;;10.73;100.00
15634;BME280;14654;48.898;8.308;2023-03-13T02:45:39;99500.56;;;10.71;100.00
15634;BME280;14654;48.898;8.308;2023-03-13T02:48:05;99503.06;;;10.74;100.00
15634;BME280;14654;48.898;8.308;2023-03-13T02:50:31;99503.06;;;10.76;100.00
15634;BME280;14654;48.898;8.308;2023-03-13T02:53:00;99500.41;;;10.79;100.00
15634;BME280;14654;48.898;8.308;2023-03-13T02:55:30;99489.13;;;10.81;100.00
15634;BME280;14654;48.898;8.308;2023-03-13T02:57:56;99493.34;;;10.84;100.00
15634;BME280;14654;48.898;8.308;2023-03-13T03:00:21;99491.56;;;10.88;100.00
15634;BME280;14654;48.898;8.308;2023-03-13T03:02:51;99481.94;;;10.93;100.00
15634;BME280;14654;48.898;8.308;2023-03-13T03:05:17;99474.97;;;10.96;100.00
15634;BME280;14654;48.898;8.308;2023-03-13T03:07:42;99470.56;;;11.00;100.00
15634;BME280;14654;48.898;8.308;2023-03-13T03:10:08;99470.53;;;11.02;100.00
15634;BME280;14654;48.898;8.308;2023-03-13T03:12:33;99478.19;;;11.06;100.00
15634;BME280;14654;48.898;8.308;2023-03-13T03:14:59;99479.03;;;11.07;100.00
15634;BME280;14654;48.898;8.308;2023-03-13T03:17:24;99476.41;;;11.08;100.00
15634;BME280;14654;48.898;8.308;2023-03-13T03:19:49;99484.16;;;11.08;100.00
15634;BME280;14654;48.898;8.308;2023-03-13T03:22:14;99471.22;;;11.08;100.00
15634;BME280;14654;48.898;8.308;2023-03-13T03:24:40;99480.75;;;11.08;100.00
15634;BME280;14654;48.898;8.308;2023-03-13T03:27:05;99486.00;;;11.05;100.00
15634;BME280;14654;48.898;8.308;2023-03-13T03:29:30;99470.47;;;11.05;100.00
15634;BME280;14654;48.898;8.308;2023-03-13T03:31:56;99471.34;;;11.04;100.00
15634;BME280;14654;48.898;8.308;2023-03-13T03:34:21;99468.81;;;11.02;100.00
15634;BME280;14654;48.898;8.308;2023-03-13T03:36:47;99469.63;;;11.03;100.00
15634;BME280;14654;48.898;8.308;2023-03-13T03:39:12;99463.66;;;11.01;100.00
15634;BME280;14654;48.898;8.308;2023-03-13T03:41:37;99474.00;;;11.01;100.00
15634;BME280;14654;48.898;8.308;2023-03-13T03:44:03;99468.00;;;10.98;100.00
15634;BME280;14654;48.898;8.308;2023-03-13T03:46:29;99467.13;;;11.00;100.00
15634;BME280;14654;48.898;8.308;2023-03-13T03:48:54;99451.56;;;11.01;100.00
15634;BME280;14654;48.898;8.308;2023-03-13T03:51:20;99452.41;;;11.02;100.00
15634;BME280;14654;48.898;8.308;2023-03-13T03:53:46;99453.28;;;11.01;100.00
15634;BME280;14654;48.898;8.308;2023-03-13T03:56:11;99463.56;;;11.04;100.00
15634;BME280;14654;48.898;8.308;2023-03-13T03:58:37;99447.16;;;11.05;100.00
15634;BME280;14654;48.898;8.308;2023-03-13T04:01:02;99441.97;;;11.05;100.00
15634;BME280;14654;48.898;8.308;2023-03-13T04:03:28;99432.38;;;11.08;100.00
15634;BME280;14654;48.898;8.308;2023-03-13T04:05:53;99427.22;;;11.08;100.00
15634;BME280;14654;48.898;8.308;2023-03-13T04:08:20;99435.75;;;11.12;100.00
15634;BME280;14654;48.898;8.308;2023-03-13T04:10:46;99427.94;;;11.13;100.00
15634;BME280;14654;48.898;8.308;2023-03-13T04:13:11;99433.91;;;11.17;100.00
15634;BME280;14654;48.898;8.308;2023-03-13T04:15:38;99424.41;;;11.18;100.00
15634;BME280;14654;48.898;8.308;2023-03-13T04:18:04;99424.31;;;11.21;100.00
15634;BME280;14654;48.898;8.308;2023-03-13T04:20:29;99406.09;;;11.25;100.00
15634;BME280;14654;48.898;8.308;2023-03-13T04:22:55;99406.03;;;11.27;100.00
15634;BME280;14654;48.898;8.308;2023-03-13T04:25:20;99410.38;;;11.26;100.00
15634;BME280;14654;48.898;8.308;2023-03-13T04:27:46;99413.78;;;11.27;100.00
15634;BME280;14654;48.898;8.308;2023-03-13T04:30:11;99401.72;;;11.26;100.00
15634;BME280;14654;48.898;8.308;2023-03-13T04:32:37;99411.22;;;11.27;100.00
15634;BME280;14654;48.898;8.308;2023-03-13T04:35:02;99405.19;;;11.26;100.00
15634;BME280;14654;48.898;8.308;2023-03-13T04:37:28;99403.44;;;11.27;100.00
15634;BME280;14654;48.898;8.308;2023-03-13T04:39:53;99402.50;;;11.29;100.00
15634;BME280;14654;48.898;8.308;2023-03-13T04:42:18;99395.59;;;11.30;100.00
15634;BME280;14654;48.898;8.308;2023-03-13T04:44:43;99403.38;;;11.28;100.00
15634;BME280;14654;48.898;8.308;2023-03-13T04:47:09;99395.59;;;11.30;100.00
15634;BME280;14654;48.898;8.308;2023-03-13T04:49:34;99391.94;;;11.37;100.00
15634;BME280;14654;48.898;8.308;2023-03-13T04:52:00;99402.28;;;11.37;100.00
15634;BME280;14654;48.898;8.308;2023-03-13T04:54:26;99389.31;;;11.39;100.00
15634;BME280;14654;48.898;8.308;2023-03-13T04:56:51;99397.84;;;11.42;100.00
15634;BME280;14654;48.898;8.308;2023-03-13T04:59:16;99401.34;;;11.41;100.00
15634;BME280;14654;48.898;8.308;2023-03-13T05:01:42;99415.03;;;11.47;100.00
15634;BME280;14654;48.898;8.308;2023-03-13T05:04:09;99413.25;;;11.49;100.00
15634;BME280;14654;48.898;8.308;2023-03-13T05:06:34;99408.81;;;11.52;100.00
15634;BME280;14654;48.898;8.308;2023-03-13T05:09:00;99419.25;;;11.49;100.00
15634;BME280;14654;48.898;8.308;2023-03-13T05:11:26;99425.34;;;11.48;100.00
15634;BME280;14654;48.898;8.308;2023-03-13T05:13:52;99421.91;;;11.48;100.00
15634;BME280;14654;48.898;8.308;2023-03-13T05:16:17;99415.03;;;11.47;100.00
15634;BME280;14654;48.898;8.308;2023-03-13T05:18:42;99421.94;;;11.46;100.00
15634;BME280;14654;48.898;8.308;2023-03-13T05:21:08;99421.09;;;11.46;100.00
15634;BME280;14654;48.898;8.308;2023-03-13T05:23:33;99415.94;;;11.44;100.00
15634;BME280;14654;48.898;8.308;2023-03-13T05:25:59;99415.94;;;11.44;100.00
15634;BME280;14654;48.898;8.308;2023-03-13T05:28:25;99409.84;;;11.47;100.00
15634;BME280;14654;48.898;8.308;2023-03-13T05:30:50;99413.28;;;11.47;100.00
15634;BME280;14654;48.898;8.308;2023-03-13T05:33:15;99407.25;;;11.47;100.00
15634;BME280;14654;48.898;8.308;2023-03-13T05:35:43;99408.13;;;11.46;100.00
15634;BME280;14654;48.898;8.308;2023-03-13T05:38:08;99423.72;;;11.44;100.00
15634;BME280;14654;48.898;8.308;2023-03-13T05:40:34;99427.13;;;11.46;100.00
15634;BME280;14654;48.898;8.308;2023-03-13T05:42:59;99429.69;;;11.46;100.00
15634;BME280;14654;48.898;8.308;2023-03-13T05:45:24;99429.63;;;11.49;100.00
15634;BME280;14654;48.898;8.308;2023-03-13T05:47:50;99435.69;;;11.48;100.00
15634;BME280;14654;48.898;8.308;2023-03-13T05:50:16;99429.69;;;11.48;100.00
15634;BME280;14654;48.898;8.308;2023-03-13T05:52:41;99427.03;;;11.49;100.00
15634;BME280;14654;48.898;8.308;2023-03-13T05:55:07;99434.72;;;11.52;100.00
15634;BME280;14654;48.898;8.308;2023-03-13T05:57:32;99438.28;;;11.48;100.00
15634;BME280;14654;48.898;8.308;2023-03-13T05:59:57;99440.75;;;11.53;100.00
15634;BME280;14654;48.898;8.308;2023-03-13T06:02:24;99443.34;;;11.53;100.00
15634;BME280;14654;48.898;8.308;2023-03-13T06:04:49;99422.59;;;11.54;100.00
15634;BME280;14654;48.898;8.308;2023-03-13T06:07:15;99426.78;;;11.58;100.00
15634;BME280;14654;48.898;8.308;2023-03-13T06:09:40;99420.75;;;11.58;100.00
15634;BME280;14654;48.898;8.308;2023-03-13T06:12:09;99416.34;;;11.62;100.00
15634;BME280;14654;48.898;8.308;2023-03-13T06:14:35;99411.00;;;11.68;100.00
15634;BME280;14654;48.898;8.308;2023-03-13T06:17:02;99414.47;;;11.67;100.00
15634;BME280;14654;48.898;8.308;2023-03-13T06:19:28;99406.63;;;11.70;100.00
15634;BME280;14654;48.898;8.308;2023-03-13T06:21:53;99424.63;;;11.74;100.00
15634;BME280;14654;48.898;8.308;2023-03-13T06:24:18;99423.69;;;11.77;100.00
15634;BME280;14654;48.898;8.308;2023-03-13T06:26:43;99433.25;;;11.75;100.00
15634;BME280;14654;48.898;8.308;2023-03-13T06:29:10;99428.06;;;11.75;100.00
15634;BME280;14654;48.898;8.308;2023-03-13T06:31:35;99422.88;;;11.75;100.00
15634;BME280;14654;48.898;8.308;2023-03-13T06:34:01;99428.88;;;11.77;100.00
15634;BME280;14654;48.898;8.308;2023-03-13T06:36:26;99432.34;;;11.78;100.00
15634;BME280;14654;48.898;8.308;2023-03-13T06:38:51;99430.63;;;11.77;100.00
15634;BME280;14654;48.898;8.308;2023-03-13T06:41:17;99428.88;;;11.77;100.00
15634;BME280;14654;48.898;8.308;2023-03-13T06:43:42;99433.16;;;11.78;100.00
15634;BME280;14654;48.898;8.308;2023-03-13T06:46:15;99438.41;;;11.77;100.00
15634;BME280;14654;48.898;8.308;2023-03-13T06:48:41;99434.94;;;11.78;100.00
15634;BME280;14654;48.898;8.308;2023-03-13T06:51:10;99438.34;;;11.80;100.00
15634;BME280;14654;48.898;8.308;2023-03-13T06:53:36;99440.94;;;11.78;100.00
15634;BME280;14654;48.898;8.308;2023-03-13T06:56:01;99431.31;;;11.83;100.00
15634;BME280;14654;48.898;8.308;2023-03-13T06:58:26;99432.06;;;11.87;100.00
15634;BME280;14654;48.898;8.308;2023-03-13T07:00:52;99429.41;;;11.88;100.00
15634;BME280;14654;48.898;8.308;2023-03-13T07:03:17;99418.97;;;11.92;100.00
15634;BME280;14654;48.898;8.308;2023-03-13T07:05:42;99417.09;;;11.97;100.00
15634;BME280;14654;48.898;8.308;2023-03-13T07:08:07;99415.22;;;12.03;100.00
15634;BME280;14654;48.898;8.308;2023-03-13T07:10:33;99408.16;;;12.09;100.00
15634;BME280;14654;48.898;8.308;2023-03-13T07:12:58;99414.03;;;12.14;100.00
15634;BME280;14654;48.898;8.308;2023-03-13T07:15:24;99411.31;;;12.18;100.00
15634;BME280;14654;48.898;8.308;2023-03-13T07:17:49;99398.16;;;12.25;100.00
15634;BME280;14654;48.898;8.308;2023-03-13T07:20:14;99400.59;;;12.31;100.00
15634;BME280;14654;48.898;8.308;2023-03-13T07:22:40;99393.50;;;12.36;100.00
15634;BME280;14654;48.898;8.308;2023-03-13T07:25:06;99391.63;;;12.41;100.00
15634;BME280;14654;48.898;8.308;2023-03-13T07:27:31;99376.75;;;12.46;100.00
15634;BME280;14654;48.898;8.308;2023-03-13T07:29:56;99360.22;;;12.49;100.00
15634;BME280;14654;48.898;8.308;2023-03-13T07:32:22;99368.72;;;12.54;100.00
15634;BME280;14654;48.898;8.308;2023-03-13T07:34:47;99366.78;;;12.61;100.00
15634;BME280;14654;48.898;8.308;2023-03-13T07:37:13;99374.41;;;12.65;100.00
15634;BME280;14654;48.898;8.308;2023-03-13T07:39:40;99372.50;;;12.71;100.00
15634;BME280;14654;48.898;8.308;2023-03-13T07:42:09;99375.72;;;12.79;100.00
15634;BME280;14654;48.898;8.308;2023-03-13T07:44:34;99373.66;;;12.89;100.00
15634;BME280;14654;48.898;8.308;2023-03-13T07:47:00;99374.00;;;13.05;100.00
15634;BME280;14654;48.898;8.308;2023-03-13T07:49:25;99371.84;;;13.18;100.00
15634;BME280;14654;48.898;8.308;2023-03-13T07:51:50;99358.31;;;13.33;100.00
15634;BME280;14654;48.898;8.308;2023-03-13T07:54:16;99358.72;;;13.46;100.00
15634;BME280;14654;48.898;8.308;2023-03-13T07:56:41;99361.53;;;13.65;100.00
15634;BME280;14654;48.898;8.308;2023-03-13T07:59:06;99366.81;;;13.86;100.00
15634;BME280;14654;48.898;8.308;2023-03-13T08:01:32;99368.81;;;14.03;100.00
15634;BME280;14654;48.898;8.308;2023-03-13T08:03:57;99364.03;;;14.14;100.00
15634;BME280;14654;48.898;8.308;2023-03-13T08:06:29;99369.78;;;14.23;100.00
15634;BME280;14654;48.898;8.308;2023-03-13T08:08:58;99367.19;;;14.23;100.00
15634;BME280;14654;48.898;8.308;2023-03-13T08:11:25;99361.06;;;14.24;100.00
15634;BME280;14654;48.898;8.308;2023-03-13T08:13:52;99368.03;;;14.23;100.00
15634;BME280;14654;48.898;8.308;2023-03-13T08:16:19;99374.66;;;14.32;100.00
15634;BME280;14654;48.898;8.308;2023-03-13T08:18:47;99373.63;;;14.36;100.00
15634;BME280;14654;48.898;8.308;2023-03-13T08:21:17;99368.94;;;14.44;100.00
15634;BME280;14654;48.898;8.308;2023-03-13T08:23:43;99374.69;;;14.53;100.00
15634;BME280;14654;48.898;8.308;2023-03-13T08:26:11;99359.06;;;14.53;100.00
15634;BME280;14654;48.898;8.308;2023-03-13T08:28:37;99368.13;;;14.44;100.00
15634;BME280;14654;48.898;8.308;2023-03-13T08:31:16;99363.38;;;14.31;100.00
15634;BME280;14654;48.898;8.308;2023-03-13T08:33:43;99364.84;;;14.16;100.00
15634;BME280;14654;48.898;8.308;2023-03-13T08:36:19;99359.25;;;14.03;100.00
15634;BME280;14654;48.898;8.308;2023-03-13T08:38:46;99361.91;;;14.02;100.00
15634;BME280;14654;48.898;8.308;2023-03-13T08:41:14;99364.63;;;13.99;100.00
15634;BME280;14654;48.898;8.308;2023-03-13T08:43:40;99363.66;;;14.01;100.00
15634;BME280;14654;48.898;8.308;2023-03-13T08:46:05;99347.81;;;14.08;100.00
15634;BME280;14654;48.898;8.308;2023-03-13T08:48:31;99359.50;;;14.20;100.00
15634;BME280;14654;48.898;8.308;2023-03-13T08:51:14;99348.63;;;14.32;100.00
15634;BME280;14654;48.898;8.308;2023-03-13T08:53:41;99344.72;;;14.42;100.00
15634;BME280;14654;48.898;8.308;2023-03-13T08:56:12;99334.72;;;14.54;100.00
15634;BME280;14654;48.898;8.308;2023-03-13T08:58:38;99336.09;;;14.62;100.00
15634;BME280;14654;48.898;8.308;2023-03-13T09:01:06;99342.09;;;14.64;100.00
15634;BME280;14654;48.898;8.308;2023-03-13T09:03:32;99331.75;;;14.63;100.00
15634;BME280;14654;48.898;8.308;2023-03-13T09:05:58;99335.16;;;14.65;100.00
15634;BME280;14654;48.898;8.308;2023-03-13T09:08:24;99331.34;;;14.74;100.00
15634;BME280;14654;48.898;8.308;2023-03-13T09:10:57;99323.81;;;14.88;100.00
15634;BME280;14654;48.898;8.308;2023-03-13T09:13:24;99311.03;;;15.03;99.68
15634;BME280;14654;48.898;8.308;2023-03-13T09:15:57;99309.06;;;15.29;98.95
15634;BME280;14654;48.898;8.308;2023-03-13T09:18:23;99300.25;;;15.50;98.74
15634;BME280;14654;48.898;8.308;2023-03-13T09:20:48;99299.56;;;15.66;97.62
15634;BME280;14654;48.898;8.308;2023-03-13T09:23:14;99299.84;;;15.79;97.31
15634;BME280;14654;48.898;8.308;2023-03-13T09:25:39;99296.53;;;15.94;96.59
15634;BME280;14654;48.898;8.308;2023-03-13T09:28:05;99299.22;;;16.12;95.31
15634;BME280;14654;48.898;8.308;2023-03-13T09:30:30;99295.84;;;16.27;95.32
15634;BME280;14654;48.898;8.308;2023-03-13T09:32:55;99288.22;;;16.59;94.54
15634;BME280;14654;48.898;8.308;2023-03-13T09:35:21;99295.19;;;16.94;92.92
15634;BME280;14654;48.898;8.308;2023-03-13T09:37:46;99292.53;;;17.29;91.17
15634;BME280;14654;48.898;8.308;2023-03-13T09:40:16;99291.47;;;17.65;90.54
15634;BME280;14654;48.898;8.308;2023-03-13T09:42:52;99291.50;;;17.97;88.63
15634;BME280;14654;48.898;8.308;2023-03-13T09:48:05;99276.25;;;18.36;85.67
15634;BME280;14654;48.898;8.308;2023-03-13T09:50:34;99276.56;;;18.46;85.62
15634;BME280;14654;48.898;8.308;2023-03-13T09:53:12;99273.97;;;18.61;84.49
15634;BME280;14654;48.898;8.308;2023-03-13T09:55:40;99267.16;;;18.58;83.96
15634;BME280;14654;48.898;8.308;2023-03-13T09:58:14;99283.88;;;18.55;85.05
15634;BME280;14654;48.898;8.308;2023-03-13T10:01:04;99279.38;;;18.57;83.49
15634;BME280;14654;48.898;8.308;2023-03-13T10:03:52;99267.31;;;18.55;83.84
15634;BME280;14654;48.898;8.308;2023-03-13T10:06:20;99271.97;;;18.50;84.18
15634;BME280;14654;48.898;8.308;2023-03-13T10:08:47;99247.47;;;18.51;84.54
15634;BME280;14654;48.898;8.308;2023-03-13T10:14:01;99255.16;;;18.54;84.51
15634;BME280;14654;48.898;8.308;2023-03-13T10:16:41;99253.97;;;18.74;83.75
15634;BME280;14654;48.898;8.308;2023-03-13T10:19:15;99245.78;;;18.95;82.55
15634;BME280;14654;48.898;8.308;2023-03-13T10:21:41;99238.56;;;19.13;82.03
15634;BME280;14654;48.898;8.308;2023-03-13T10:24:32;99239.13;;;19.32;82.08
15634;BME280;14654;48.898;8.308;2023-03-13T10:27:00;99246.09;;;19.61;80.93
15634;BME280;14654;48.898;8.308;2023-03-13T10:29:27;99235.66;;;19.74;79.75
15634;BME280;14654;48.898;8.308;2023-03-13T10:32:05;99239.28;;;19.86;79.79
15634;BME280;14654;48.898;8.308;2023-03-13T10:34:57;99232.25;;;19.86;79.87
15634;BME280;14654;48.898;8.308;2023-03-13T10:37:39;99226.16;;;19.58;79.21
15634;BME280;14654;48.898;8.308;2023-03-13T10:40:26;99221.34;;;19.09;80.76
15634;BME280;14654;48.898;8.308;2023-03-13T10:42:59;99211.22;;;18.73;82.48
15634;BME280;14654;48.898;8.308;2023-03-13T10:45:26;99206.03;;;18.72;82.66
15634;BME280;14654;48.898;8.308;2023-03-13T10:47:59;99193.72;;;19.03;82.32
15634;BME280;14654;48.898;8.308;2023-03-13T10:50:27;99186.31;;;19.10;82.21
15634;BME280;14654;48.898;8.308;2023-03-13T10:52:56;99174.81;;;18.98;82.56
15634;BME280;14654;48.898;8.308;2023-03-13T10:55:24;99176.75;;;18.80;83.27
15634;BME280;14654;48.898;8.308;2023-03-13T10:58:02;99175.75;;;18.68;83.53
15634;BME280;14654;48.898;8.308;2023-03-13T11:00:38;99161.19;;;18.62;84.56
15634;BME280;14654;48.898;8.308;2023-03-13T11:05:54;99150.81;;;18.46;84.93
15634;BME280;14654;48.898;8.308;2023-03-13T11:08:23;99149.97;;;18.46;84.75
15634;BME280;14654;48.898;8.308;2023-03-13T11:10:57;99134.06;;;18.49;85.81
15634;BME280;14654;48.898;8.308;2023-03-13T11:16:15;99126.97;;;18.51;86.36
15634;BME280;14654;48.898;8.308;2023-03-13T11:32:47;99093.41;;;19.14;85.01
15634;BME280;14654;48.898;8.308;2023-03-13T11:36:37;99079.00;;;19.34;83.86
15634;BME280;14654;48.898;8.308;2023-03-13T11:38:36;99085.06;;;19.49;83.65
15634;BME280;14654;48.898;8.308;2023-03-13T11:41:26;99080.88;;;19.59;83.19
15634;BME280;14654;48.898;8.308;2023-03-13T11:49:59;99049.38;;;20.25;80.67
15634;BME280;14654;48.898;8.308;2023-03-13T11:53:12;99040.22;;;20.31;79.12
15634;BME280;14654;48.898;8.308;2023-03-13T11:55:32;99038.31;;;20.33;77.87
15634;BME280;14654;48.898;8.308;2023-03-13T11:58:37;99024.25;;;20.34;78.40
15634;BME280;14654;48.898;8.308;2023-03-13T12:01:11;99011.59;;;20.52;78.13
15634;BME280;14654;48.898;8.308;2023-03-13T12:03:59;99011.66;;;20.64;77.84
15634;BME280;14654;48.898;8.308;2023-03-13T12:06:31;99003.34;;;20.70;77.65
15634;BME280;14654;48.898;8.308;2023-03-13T12:09:14;98997.75;;;20.75;77.72
15634;BME280;14654;48.898;8.308;2023-03-13T12:11:59;98992.53;;;20.62;78.12
15634;BME280;14654;48.898;8.308;2023-03-13T12:17:41;98972.16;;;20.52;78.12
15634;BME280;14654;48.898;8.308;2023-03-13T12:22:45;98962.09;;;20.46;79.06
15634;BME280;14654;48.898;8.308;2023-03-13T12:25:20;98957.97;;;20.55;79.13
15634;BME280;14654;48.898;8.308;2023-03-13T12:27:55;98967.31;;;20.59;79.16
15634;BME280;14654;48.898;8.308;2023-03-13T12:33:17;98945.59;;;20.68;77.55
15634;BME280;14654;48.898;8.308;2023-03-13T12:35:48;98935.50;;;20.75;77.92
15634;BME280;14654;48.898;8.308;2023-03-13T12:38:28;98931.94;;;20.76;77.47
15634;BME280;14654;48.898;8.308;2023-03-13T12:41:03;98931.16;;;20.74;77.82
15634;BME280;14654;48.898;8.308;2023-03-13T12:43:36;98923.28;;;20.74;78.24
15634;BME280;14654;48.898;8.308;2023-03-13T12:56:41;98880.13;;;21.48;76.30
15634;BME280;14654;48.898;8.308;2023-03-13T12:59:18;98870.81;;;21.55;75.00
15634;BME280;14654;48.898;8.308;2023-03-13T13:01:49;98864.69;;;21.55;74.78
15634;BME280;14654;48.898;8.308;2023-03-13T13:04:21;98854.03;;;21.56;74.77
15634;BME280;14654;48.898;8.308;2023-03-13T13:12:09;98846.91;;;21.81;74.85
15634;BME280;14654;48.898;8.308;2023-03-13T13:19:56;98823.06;;;21.83;73.14
15634;BME280;14654;48.898;8.308;2023-03-13T13:32:52;98807.50;;;21.57;73.02
15634;BME280;14654;48.898;8.308;2023-03-13T13:35:24;98795.31;;;21.44;74.00
15634;BME280;14654;48.898;8.308;2023-03-13T13:37:50;98784.69;;;21.35;74.42
15634;BME280;14654;48.898;8.308;2023-03-13T13:40:20;98769.72;;;21.24;74.40
15634;BME280;14654;48.898;8.308;2023-03-13T13:42:52;98760.75;;;21.15;74.53
15634;BME280;14654;48.898;8.308;2023-03-13T13:45:34;98767.69;;;21.05;74.43
15634;BME280;14654;48.898;8.308;2023-03-13T13:48:24;98749.28;;;20.93;74.51
15634;BME280;14654;48.898;8.308;2023-03-13T13:53:55;98746.13;;;20.77;74.96
15634;BME280;14654;48.898;8.308;2023-03-13T13:59:02;98735.66;;;20.52;74.96
15634;BME280;14654;48.898;8.308;2023-03-13T14:01:29;98726.53;;;20.45;75.30
15634;BME280;14654;48.898;8.308;2023-03-13T14:04:05;98722.25;;;20.44;74.84
15634;BME280;14654;48.898;8.308;2023-03-13T14:06:35;98724.63;;;20.36;75.23
15634;BME280;14654;48.898;8.308;2023-03-13T14:09:33;98713.00;;;20.27;75.95
15634;BME280;14654;48.898;8.308;2023-03-13T14:12:00;98706.03;;;20.15;76.09
15634;BME280;14654;48.898;8.308;2023-03-13T14:14:25;98694.69;;;20.14;76.04
15634;BME280;14654;48.898;8.308;2023-03-13T14:16:53;98694.47;;;20.17;76.42
15634;BME280;14654;48.898;8.308;2023-03-13T14:19:37;98690.53;;;20.23;76.48
15634;BME280;14654;48.898;8.308;2023-03-13T14:22:10;98685.06;;;20.26;75.79
15634;BME280;14654;48.898;8.308;2023-03-13T14:24:38;98676.47;;;20.35;75.08
15634;BME280;14654;48.898;8.308;2023-03-13T14:27:15;98666.69;;;20.37;74.76
15634;BME280;14654;48.898;8.308;2023-03-13T14:29:40;98660.03;;;20.33;75.28